createdAt,value
2022-08-07T00:00:26.265Z,97191.42
2022-08-07T00:03:06.425Z,97188.96
2022-08-07T00:05:37.602Z,97190.20
2022-08-07T00:08:07.809Z,97189.11
2022-08-07T00:10:48.171Z,97190.50
2022-08-07T00:13:26.755Z,97188.98
2022-08-07T00:15:55.534Z,97192.14
2022-08-07T00:18:25.893Z,97189.53
2022-08-07T00:21:01.636Z,97196.81
2022-08-07T00:23:34.104Z,97195.93
2022-08-07T00:26:13.002Z,97189.90
2022-08-07T00:28:55.456Z,97196.74
2022-08-07T00:31:38.061Z,97201.84
2022-08-07T00:34:09.764Z,97204.27
2022-08-07T00:36:43.291Z,97204.71
2022-08-07T00:39:16.457Z,97205.81
2022-08-07T00:41:53.330Z,97204.41
2022-08-07T00:44:29.954Z,97202.92
2022-08-07T00:46:57.872Z,97201.71
2022-08-07T00:50:20.697Z,97202.08
2022-08-07T00:52:19.924Z,97203.94
2022-08-07T00:54:53.715Z,97203.33
2022-08-07T00:57:25.928Z,97206.10
2022-08-07T00:59:54.640Z,97208.27
2022-08-07T01:02:29.334Z,97209.38
2022-08-07T01:04:59.084Z,97204.84
2022-08-07T01:07:29.674Z,97204.38
2022-08-07T01:10:05.888Z,97202.90
2022-08-07T01:12:53.343Z,97204.23
2022-08-07T01:16:01.131Z,97202.58
2022-08-07T01:18:16.944Z,97199.73
2022-08-07T01:20:57.366Z,97202.55
2022-08-07T01:23:38.743Z,97203.05
2022-08-07T01:26:11.826Z,97203.29
2022-08-07T01:28:46.373Z,97205.52
2022-08-07T01:31:21.414Z,97201.43
2022-08-07T01:33:55.368Z,97198.19
2022-08-07T01:36:34.004Z,97198.31
2022-08-07T01:39:10.679Z,97200.52
2022-08-07T01:42:07.593Z,97200.20
2022-08-07T01:44:32.885Z,97203.07
2022-08-07T01:47:14.349Z,97203.61
2022-08-07T01:49:44.218Z,97204.64
2022-08-07T01:52:15.397Z,97204.92
2022-08-07T01:54:44.915Z,97205.98
2022-08-07T01:57:27.886Z,97208.57
2022-08-07T02:00:01.152Z,97210.04
2022-08-07T02:03:12.138Z,97206.11
2022-08-07T02:05:43.205Z,97204.55
2022-08-07T02:08:17.439Z,97201.42
2022-08-07T02:10:55.056Z,97201.91
2022-08-07T02:13:56.698Z,97204.52
2022-08-07T02:16:19.890Z,97206.63
2022-08-07T02:18:56.726Z,97207.70
2022-08-07T02:21:26.694Z,97211.92
2022-08-07T02:24:17.820Z,97215.87
2022-08-07T02:26:46.660Z,97218.02
2022-08-07T02:29:14.760Z,97218.67
2022-08-07T02:31:51.623Z,97217.06
2022-08-07T02:34:22.925Z,97214.91
2022-08-07T02:36:55.030Z,97213.73
2022-08-07T02:39:42.377Z,97215.30
2022-08-07T02:42:16.922Z,97216.73
2022-08-07T02:44:48.953Z,97217.12
2022-08-07T02:47:23.499Z,97224.95
2022-08-07T02:49:57.776Z,97226.91
2022-08-07T02:52:32.639Z,97223.78
2022-08-07T02:55:04.063Z,97223.36
2022-08-07T02:57:36.618Z,97219.13
2022-08-07T03:00:10.977Z,97218.70
2022-08-07T03:02:41.982Z,97222.48
2022-08-07T03:05:24.696Z,97226.64
2022-08-07T03:08:07.945Z,97230.64
2022-08-07T03:10:40.614Z,97234.82
2022-08-07T03:13:19.640Z,97238.65
2022-08-07T03:15:56.526Z,97231.27
2022-08-07T03:18:34.944Z,97233.64
2022-08-07T03:21:08.505Z,97235.97
2022-08-07T03:24:20.558Z,97239.64
2022-08-07T03:26:32.046Z,97242.28
2022-08-07T03:29:01.921Z,97238.45
2022-08-07T03:31:43.182Z,97239.73
2022-08-07T03:34:18.643Z,97239.20
2022-08-07T03:36:54.301Z,97237.21
2022-08-07T03:39:59.298Z,97241.96
2022-08-07T03:42:12.372Z,97245.30
2022-08-07T03:44:41.615Z,97248.43
2022-08-07T03:47:14.388Z,97253.28
2022-08-07T03:49:47.986Z,97252.86
2022-08-07T03:52:27.005Z,97254.64
2022-08-07T03:55:07.433Z,97252.79
2022-08-07T03:58:34.862Z,97254.35
2022-08-07T04:00:33.788Z,97255.50
2022-08-07T04:03:05.263Z,97250.96
2022-08-07T04:05:40.163Z,97255.12
2022-08-07T04:08:16.354Z,97259.16
2022-08-07T04:10:54.573Z,97265.05
2022-08-07T04:14:09.240Z,97267.30
2022-08-07T04:16:31.410Z,97269.14
2022-08-07T04:19:12.764Z,97267.14
2022-08-07T04:21:59.055Z,97273.98
2022-08-07T04:24:38.816Z,97274.32
2022-08-07T04:27:23.671Z,97271.68
2022-08-07T04:30:01.549Z,97274.42
2022-08-07T04:32:58.657Z,97276.42
2022-08-07T04:35:35.048Z,97276.85
2022-08-07T04:38:07.062Z,97280.79
2022-08-07T04:40:51.299Z,97277.86
2022-08-07T04:44:12.215Z,97284.77
2022-08-07T04:47:08.293Z,97284.77
2022-08-07T04:49:41.456Z,97281.91
2022-08-07T04:52:18.916Z,97282.58
2022-08-07T04:55:14.995Z,97279.05
2022-08-07T04:58:10.239Z,97281.56
2022-08-07T05:00:58.292Z,97281.39
2022-08-07T05:04:01.005Z,97289.25
2022-08-07T05:06:20.392Z,97289.73
2022-08-07T05:09:01.218Z,97291.02
2022-08-07T05:11:58.109Z,97294.13
2022-08-07T05:14:52.971Z,97295.27
2022-08-07T05:17:52.659Z,97296.17
2022-08-07T05:20:16.219Z,97303.09
2022-08-07T05:22:46.513Z,97308.27
2022-08-07T05:25:36.492Z,97312.37
2022-08-07T05:28:20.004Z,97312.14
2022-08-07T05:30:52.111Z,97310.58
2022-08-07T05:33:21.904Z,97307.59
2022-08-07T05:35:51.958Z,97314.38
2022-08-07T05:38:59.763Z,97312.04
2022-08-07T05:41:12.261Z,97312.34
2022-08-07T05:44:01.237Z,97317.45
2022-08-07T05:46:37.828Z,97318.37
2022-08-07T05:49:11.654Z,97319.57
2022-08-07T05:51:46.217Z,97319.11
2022-08-07T05:54:30.568Z,97323.06
2022-08-07T05:57:01.496Z,97321.75
2022-08-07T05:59:38.900Z,97324.75
2022-08-07T06:02:29.089Z,97319.98
2022-08-07T06:05:10.906Z,97323.04
2022-08-07T06:08:14.109Z,97326.15
2022-08-07T06:10:32.771Z,97332.10
2022-08-07T06:13:02.280Z,97331.45
2022-08-07T06:15:42.459Z,97332.87
2022-08-07T06:18:14.285Z,97332.60
2022-08-07T06:20:50.350Z,97333.55
2022-08-07T06:23:46.529Z,97331.45
2022-08-07T06:26:27.573Z,97332.89
2022-08-07T06:28:59.024Z,97338.10
2022-08-07T06:31:38.414Z,97340.15
2022-08-07T06:34:15.638Z,97337.65
2022-08-07T06:36:52.054Z,97337.66
2022-08-07T06:40:16.904Z,97335.88
2022-08-07T06:42:16.018Z,97332.89
2022-08-07T06:45:11.110Z,97333.88
2022-08-07T06:47:57.626Z,97332.58
2022-08-07T06:50:30.669Z,97328.45
2022-08-07T06:53:01.119Z,97325.31
2022-08-07T06:55:53.769Z,97324.68
2022-08-07T06:58:24.481Z,97322.80
2022-08-07T07:01:00.272Z,97325.59
2022-08-07T07:03:48.767Z,97331.09
2022-08-07T07:06:23.824Z,97323.41
2022-08-07T07:08:52.185Z,97329.88
2022-08-07T07:12:09.824Z,97326.94
2022-08-07T07:14:09.909Z,97333.89
2022-08-07T07:16:49.509Z,97330.21
2022-08-07T07:19:55.652Z,97333.27
2022-08-07T07:22:33.718Z,97335.98
2022-08-07T07:25:02.798Z,97334.66
2022-08-07T07:28:01.900Z,97336.61
2022-08-07T07:30:38.458Z,97335.61
2022-08-07T07:33:11.914Z,97336.19
2022-08-07T07:35:43.979Z,97336.14
2022-08-07T07:38:23.636Z,97339.45
2022-08-07T07:40:56.633Z,97336.96
2022-08-07T07:43:48.172Z,97335.37
2022-08-07T07:46:37.999Z,97335.49
2022-08-07T07:49:09.334Z,97336.94
2022-08-07T07:51:59.756Z,97335.02
2022-08-07T07:54:30.005Z,97333.23
2022-08-07T07:57:02.979Z,97331.63
2022-08-07T07:59:52.720Z,97334.26
2022-08-07T08:02:34.220Z,97335.72
2022-08-07T08:05:05.416Z,97330.50
2022-08-07T08:07:59.588Z,97325.35
2022-08-07T08:10:35.614Z,97323.48
2022-08-07T08:13:10.608Z,97325.23
2022-08-07T08:15:58.811Z,97322.48
2022-08-07T08:18:30.450Z,97316.05
2022-08-07T08:21:00.697Z,97318.71
2022-08-07T08:23:49.147Z,97320.27
2022-08-07T08:26:37.372Z,97324.42
2022-08-07T08:29:06.378Z,97323.29
2022-08-07T08:31:59.260Z,97322.54
2022-08-07T08:34:34.058Z,97319.79
2022-08-07T08:38:21.218Z,97318.13
2022-08-07T08:41:02.730Z,97317.73
2022-08-07T08:43:32.094Z,97314.38
2022-08-07T08:46:41.226Z,97313.38
2022-08-07T08:49:46.158Z,97316.81
2022-08-07T08:52:40.903Z,97316.35
2022-08-07T08:55:55.429Z,97313.45
2022-08-07T08:58:36.458Z,97313.10
2022-08-07T09:01:19.241Z,97313.48
2022-08-07T09:04:00.427Z,97312.30
2022-08-07T09:06:48.517Z,97311.35
2022-08-07T09:09:48.357Z,97313.34
2022-08-07T09:12:41.458Z,97314.34
2022-08-07T09:16:21.957Z,97315.55
2022-08-07T09:18:36.850Z,97312.30
2022-08-07T09:21:13.622Z,97312.95
2022-08-07T09:24:58.612Z,97311.24
2022-08-07T09:27:59.562Z,97306.31
2022-08-07T09:30:46.708Z,97300.09
2022-08-07T09:33:41.309Z,97300.94
2022-08-07T09:36:16.148Z,97301.66
2022-08-07T09:39:11.299Z,97304.58
2022-08-07T09:42:17.022Z,97305.02
2022-08-07T09:47:37.257Z,97298.55
2022-08-07T09:48:29.703Z,97293.42
2022-08-07T09:52:16.435Z,97291.83
2022-08-07T09:54:27.174Z,97289.27
2022-08-07T09:57:36.783Z,97287.84
2022-08-07T10:00:19.032Z,97290.75
2022-08-07T10:04:03.705Z,97285.77
2022-08-07T10:06:24.512Z,97278.07
2022-08-07T10:09:42.968Z,97275.02
2022-08-07T10:12:53.059Z,97271.95
2022-08-07T10:15:49.576Z,97278.88
2022-08-07T10:18:35.390Z,97266.64
2022-08-07T10:22:12.332Z,97271.13
2022-08-07T10:24:49.656Z,97264.81
2022-08-07T10:27:46.516Z,97265.61
2022-08-07T10:30:25.030Z,97261.10
2022-08-07T10:32:59.621Z,97269.13
2022-08-07T10:35:55.506Z,97262.31
2022-08-07T10:39:13.518Z,97260.21
2022-08-07T10:42:01.626Z,97259.80
2022-08-07T10:45:11.867Z,97262.02
2022-08-07T10:48:35.054Z,97262.67
2022-08-07T10:51:16.879Z,97258.69
2022-08-07T10:54:08.832Z,97255.20
2022-08-07T10:57:03.102Z,97254.48
2022-08-07T10:59:37.162Z,97245.05
2022-08-07T11:02:35.120Z,97243.80
2022-08-07T11:05:16.788Z,97243.86
2022-08-07T11:08:02.843Z,97239.33
2022-08-07T11:10:34.916Z,97231.28
2022-08-07T11:13:42.472Z,97231.81
2022-08-07T11:16:07.155Z,97234.17
2022-08-07T11:18:44.221Z,97232.04
2022-08-07T11:21:47.118Z,97228.48
2022-08-07T11:24:28.892Z,97222.73
2022-08-07T11:27:21.674Z,97216.57
2022-08-07T11:30:18.291Z,97208.36
2022-08-07T11:33:08.130Z,97204.70
2022-08-07T11:36:01.406Z,97202.09
2022-08-07T11:39:02.711Z,97202.42
2022-08-07T11:42:01.678Z,97200.48
2022-08-07T11:44:52.650Z,97194.74
2022-08-07T11:47:56.517Z,97195.10
2022-08-07T11:50:57.949Z,97196.92
2022-08-07T11:53:56.982Z,97188.90
2022-08-07T11:56:29.287Z,97185.42
2022-08-07T11:59:00.391Z,97185.09
2022-08-07T12:02:01.189Z,97186.02
2022-08-07T12:04:47.716Z,97180.69
2022-08-07T12:07:27.590Z,97181.01
2022-08-07T12:10:25.321Z,97174.30
2022-08-07T12:13:11.534Z,97172.55
2022-08-07T12:16:06.057Z,97170.31
2022-08-07T12:18:51.281Z,97164.64
2022-08-07T12:21:55.584Z,97159.02
2022-08-07T12:26:00.440Z,97153.31
2022-08-07T12:28:09.742Z,97148.52
2022-08-07T12:30:46.718Z,97146.13
2022-08-07T12:33:28.175Z,97143.87
2022-08-07T12:36:02.213Z,97147.04
2022-08-07T12:38:42.785Z,97145.42
2022-08-07T12:41:17.286Z,97139.77
2022-08-07T12:44:02.316Z,97134.11
2022-08-07T12:47:00.498Z,97129.08
2022-08-07T12:50:40.184Z,97136.04
2022-08-07T12:53:29.057Z,97133.58
2022-08-07T12:56:27.874Z,97133.70
2022-08-07T12:58:59.579Z,97139.44
2022-08-07T13:01:40.056Z,97137.46
2022-08-07T13:04:49.071Z,97133.19
2022-08-07T13:08:14.553Z,97130.34
2022-08-07T13:11:16.284Z,97121.98
2022-08-07T13:14:10.200Z,97117.77
2022-08-07T13:16:44.303Z,97113.38
2022-08-07T13:19:50.342Z,97114.63
2022-08-07T13:22:28.377Z,97115.38
2022-08-07T13:25:15.215Z,97118.85
2022-08-07T13:28:10.952Z,97116.56
2022-08-07T13:31:02.069Z,97119.33
2022-08-07T13:34:30.139Z,97120.89
2022-08-07T13:36:57.431Z,97117.52
2022-08-07T13:40:33.990Z,97114.07
2022-08-07T13:42:38.881Z,97107.53
2022-08-07T13:46:06.337Z,97108.50
2022-08-07T13:48:07.745Z,97109.57
2022-08-07T13:51:00.062Z,97107.02
2022-08-07T13:53:35.917Z,97105.26
2022-08-07T13:56:36.294Z,97106.25
2022-08-07T13:59:25.697Z,97110.98
2022-08-07T14:02:05.259Z,97107.39
2022-08-07T14:04:54.410Z,97108.94
2022-08-07T14:07:28.846Z,97104.56
2022-08-07T14:10:20.432Z,97102.55
2022-08-07T14:13:00.698Z,97105.77
2022-08-07T14:15:37.325Z,97109.60
2022-08-07T14:18:27.613Z,97114.09
2022-08-07T14:21:21.026Z,97120.27
2022-08-07T14:24:12.910Z,97117.91
2022-08-07T14:28:11.704Z,97124.14
2022-08-07T14:30:02.846Z,97126.63
2022-08-07T14:32:46.160Z,97127.90
2022-08-07T14:35:42.845Z,97131.52
2022-08-07T14:38:30.259Z,97135.02
2022-08-07T14:41:05.212Z,97138.32
2022-08-07T14:43:55.792Z,97136.70
2022-08-07T14:46:31.052Z,97139.77
2022-08-07T14:49:17.209Z,97135.52
2022-08-07T14:52:03.004Z,97132.49
2022-08-07T14:54:41.776Z,97132.08
2022-08-07T15:00:04.310Z,97132.00
2022-08-07T15:08:32.276Z,97139.27
2022-08-07T15:11:06.805Z,97143.05
2022-08-07T15:13:41.851Z,97146.05
2022-08-07T15:16:14.631Z,97149.50
2022-08-07T15:18:48.800Z,97146.77
2022-08-07T15:21:43.905Z,97146.48
2022-08-07T15:25:12.824Z,97146.50
2022-08-07T15:27:11.504Z,97154.25
2022-08-07T15:30:04.545Z,97155.41
2022-08-07T15:36:00.832Z,97162.77
2022-08-07T15:38:31.170Z,97164.83
2022-08-07T15:41:23.732Z,97170.40
2022-08-07T15:44:07.053Z,97173.84
2022-08-07T15:46:51.778Z,97175.05
2022-08-07T15:52:30.473Z,97175.10
2022-08-07T15:55:03.378Z,97177.73
2022-08-07T15:57:47.603Z,97179.77
2022-08-07T16:00:31.848Z,97180.62
2022-08-07T16:03:06.682Z,97185.44
2022-08-07T16:05:50.681Z,97181.80
2022-08-07T16:08:33.090Z,97183.30
2022-08-07T16:11:27.240Z,97181.67
2022-08-07T16:13:59.984Z,97182.44
2022-08-07T16:16:51.264Z,97185.58
2022-08-07T16:20:04.648Z,97185.70
2022-08-07T16:22:58.534Z,97186.45
2022-08-07T16:26:01.970Z,97187.72
2022-08-07T16:30:06.976Z,97188.60
2022-08-07T16:32:06.733Z,97193.40
2022-08-07T16:35:00.101Z,97194.80
2022-08-07T16:38:05.230Z,97197.67
2022-08-07T16:41:01.345Z,97202.65
2022-08-07T16:44:46.248Z,97202.52
2022-08-07T16:47:16.366Z,97207.93
2022-08-07T16:50:41.723Z,97211.86
2022-08-07T16:53:48.154Z,97213.69
2022-08-07T16:56:59.351Z,97220.76
2022-08-07T16:59:47.494Z,97224.90
2022-08-07T17:02:53.547Z,97228.41
2022-08-07T17:06:01.719Z,97229.00
2022-08-07T17:09:08.877Z,97226.88
2022-08-07T17:12:04.160Z,97227.14
2022-08-07T17:14:56.663Z,97229.10
2022-08-07T17:17:26.880Z,97229.38
2022-08-07T17:20:37.369Z,97235.91
2022-08-07T17:23:21.015Z,97237.66
2022-08-07T17:25:53.884Z,97237.00
2022-08-07T17:28:35.627Z,97245.04
2022-08-07T17:31:23.777Z,97245.79
2022-08-07T17:34:15.071Z,97249.52
2022-08-07T17:36:59.790Z,97245.95
2022-08-07T17:39:58.878Z,97246.89
2022-08-07T17:42:36.214Z,97246.45
2022-08-07T17:45:35.204Z,97245.44
2022-08-07T17:48:12.679Z,97249.28
2022-08-07T17:51:02.343Z,97251.70
2022-08-07T17:54:00.853Z,97253.25
2022-08-07T17:56:29.002Z,97251.15
2022-08-07T17:59:20.473Z,97253.48
2022-08-07T18:02:10.782Z,97257.81
2022-08-07T18:05:20.950Z,97255.45
2022-08-07T18:08:18.634Z,97256.20
2022-08-07T18:12:07.680Z,97251.16
2022-08-07T18:14:01.570Z,97256.33
2022-08-07T18:16:36.445Z,97263.29
2022-08-07T18:21:04.280Z,97264.09
2022-08-07T18:22:54.201Z,97271.23
2022-08-07T18:25:40.835Z,97266.35
2022-08-07T18:28:57.745Z,97275.41
2022-08-07T18:31:50.113Z,97279.70
2022-08-07T18:35:01.410Z,97286.27
2022-08-07T18:38:56.220Z,97288.48
2022-08-07T18:41:10.383Z,97292.58
2022-08-07T18:43:58.264Z,97290.79
2022-08-07T18:46:43.242Z,97289.79
2022-08-07T18:50:31.321Z,97294.39
2022-08-07T18:52:53.171Z,97297.02
2022-08-07T18:55:55.981Z,97297.23
2022-08-07T18:58:59.656Z,97297.13
2022-08-07T19:02:31.780Z,97296.40
2022-08-07T19:05:10.761Z,97292.79
2022-08-07T19:08:18.405Z,97301.33
2022-08-07T19:10:55.750Z,97300.23
2022-08-07T19:13:40.521Z,97299.72
2022-08-07T19:17:00.403Z,97303.92
2022-08-07T19:19:27.977Z,97307.83
2022-08-07T19:22:30.764Z,97312.25
2022-08-07T19:25:05.511Z,97311.63
2022-08-07T19:28:29.187Z,97315.23
2022-08-07T19:31:03.257Z,97314.99
2022-08-07T19:33:33.385Z,97317.47
2022-08-07T19:36:05.817Z,97321.66
2022-08-07T19:38:52.514Z,97325.28
2022-08-07T19:41:39.067Z,97321.41
2022-08-07T19:44:21.182Z,97324.23
2022-08-07T19:46:57.742Z,97332.41
2022-08-07T19:49:57.599Z,97332.45
2022-08-07T19:52:22.634Z,97332.48
2022-08-07T19:54:56.214Z,97335.10
2022-08-07T19:57:56.866Z,97333.98
2022-08-07T20:00:29.259Z,97331.17
2022-08-07T20:03:35.182Z,97325.73
2022-08-07T20:06:15.303Z,97327.56
2022-08-07T20:09:01.703Z,97329.33
2022-08-07T20:12:01.658Z,97327.30
2022-08-07T20:14:32.008Z,97323.52
2022-08-07T20:17:03.597Z,97326.64
2022-08-07T20:19:47.719Z,97327.81
2022-08-07T20:22:29.005Z,97327.83
2022-08-07T20:25:19.279Z,97331.79
2022-08-07T20:27:54.355Z,97329.89
2022-08-07T20:30:33.266Z,97325.89
2022-08-07T20:33:05.093Z,97320.00
2022-08-07T20:35:54.362Z,97315.56
2022-08-07T20:38:34.081Z,97323.02
2022-08-07T20:41:05.756Z,97320.88
2022-08-07T20:43:36.168Z,97325.04
2022-08-07T20:46:25.745Z,97326.04
2022-08-07T20:49:59.424Z,97330.57
2022-08-07T20:51:51.064Z,97332.13
2022-08-07T20:54:30.208Z,97331.81
2022-08-07T20:57:05.049Z,97335.42
2022-08-07T21:00:07.937Z,97333.16
2022-08-07T21:02:54.080Z,97332.10
2022-08-07T21:05:51.484Z,97336.86
2022-08-07T21:08:36.523Z,97338.55
2022-08-07T21:11:18.474Z,97340.86
2022-08-07T21:14:16.269Z,97339.39
2022-08-07T21:17:06.543Z,97336.17
2022-08-07T21:19:51.341Z,97336.92
2022-08-07T21:22:33.273Z,97338.88
2022-08-07T21:25:18.132Z,97341.66
2022-08-07T21:27:53.762Z,97345.85
2022-08-07T21:30:29.895Z,97349.59
2022-08-07T21:33:13.120Z,97352.33
2022-08-07T21:36:11.846Z,97354.20
2022-08-07T21:39:45.456Z,97357.89
2022-08-07T21:42:37.761Z,97356.56
2022-08-07T21:46:09.549Z,97358.65
2022-08-07T21:48:33.630Z,97360.59
2022-08-07T21:51:27.412Z,97356.59
2022-08-07T21:54:13.118Z,97359.73
2022-08-07T21:56:49.220Z,97359.95
2022-08-07T21:59:17.624Z,97359.75
2022-08-07T22:02:11.314Z,97356.79
2022-08-07T22:04:53.545Z,97359.84
2022-08-07T22:07:31.616Z,97357.25
2022-08-07T22:10:14.955Z,97357.21
2022-08-07T22:12:49.666Z,97357.43
2022-08-07T22:16:45.111Z,97360.74
2022-08-07T22:18:57.816Z,97356.63
2022-08-07T22:22:02.181Z,97360.52
2022-08-07T22:24:32.647Z,97363.11
2022-08-07T22:27:12.865Z,97367.59
2022-08-07T22:29:52.363Z,97368.96
2022-08-07T22:32:37.780Z,97371.23
2022-08-07T22:35:11.634Z,97373.69
2022-08-07T22:38:10.654Z,97370.86
2022-08-07T22:40:54.405Z,97375.02
2022-08-07T22:43:34.032Z,97373.04
2022-08-07T22:46:42.969Z,97379.39
2022-08-07T22:49:54.310Z,97376.13
2022-08-07T22:52:55.145Z,97374.30
2022-08-07T22:55:30.246Z,97375.35
2022-08-07T22:58:15.954Z,97374.63
2022-08-07T23:01:08.802Z,97379.85
2022-08-07T23:03:57.874Z,97378.71
2022-08-07T23:06:27.243Z,97380.88
2022-08-07T23:10:04.436Z,97378.77
2022-08-07T23:12:55.792Z,97381.70
2022-08-07T23:16:06.386Z,97380.61
2022-08-07T23:18:38.149Z,97384.16
2022-08-07T23:21:23.458Z,97382.29
2022-08-07T23:24:38.507Z,97380.11
2022-08-07T23:27:33.569Z,97378.37
2022-08-07T23:30:38.787Z,97383.11
2022-08-07T23:34:19.850Z,97379.23
2022-08-07T23:36:29.159Z,97380.98
2022-08-07T23:39:22.140Z,97382.77
2022-08-07T23:42:30.395Z,97382.95
2022-08-07T23:45:49.958Z,97384.23
2022-08-07T23:48:22.938Z,97378.73
2022-08-07T23:52:57.829Z,97377.56
2022-08-07T23:54:28.458Z,97381.02
2022-08-07T23:57:34.884Z,97380.25
